Trois-Ponts, Belgium
Current Conditions -  °F | °C
As of 5:20 AM on Friday 19 Dec 2014 (Local Time) from EBLG Reporting Station
Haze Haze  
Wind Chill: 50°   Ceiling: 1000
Heat Index: 50°   Visibility: 3mi
Dew Point: 48°   Wind: 24mph
Humidity: 94%   Direction: 220°SW
Pressure: 29.94"   Gusts: NA
Location:  50.37°N, 5.87°E
Report Text: EBLG 190420Z 22021KT 5000 BR SCT008 BKN010 10/09 Q1014 NOSIG
Loading
Personal Weather Stations






























Interactive Weather Map New forecast layout! Learn more

10-Day Weather Forecast

Advertisements
Track Severe Weather on mobile